sensor_id;sensor_type;location;lat;lon;timestamp;temperature;humidity
7461;DHT22;6757;52.258;12.840;2023-02-22T00:00:33;7.50;99.90
7461;DHT22;6757;52.258;12.840;2023-02-22T00:03:10;7.40;99.90
7461;DHT22;6757;52.258;12.840;2023-02-22T00:05:40;7.50;99.90
7461;DHT22;6757;52.258;12.840;2023-02-22T00:08:10;7.40;99.90
7461;DHT22;6757;52.258;12.840;2023-02-22T00:10:37;7.40;99.90
7461;DHT22;6757;52.258;12.840;2023-02-22T00:13:05;7.40;99.90
7461;DHT22;6757;52.258;12.840;2023-02-22T00:15:34;7.40;99.90
7461;DHT22;6757;52.258;12.840;2023-02-22T00:18:03;7.40;99.90
7461;DHT22;6757;52.258;12.840;2023-02-22T00:20:32;7.40;99.90
7461;DHT22;6757;52.258;12.840;2023-02-22T00:23:03;7.40;99.90
7461;DHT22;6757;52.258;12.840;2023-02-22T00:25:32;7.40;99.90
7461;DHT22;6757;52.258;12.840;2023-02-22T00:28:00;7.40;99.90
7461;DHT22;6757;52.258;12.840;2023-02-22T00:30:29;7.30;99.90
7461;DHT22;6757;52.258;12.840;2023-02-22T00:32:58;7.30;99.90
7461;DHT22;6757;52.258;12.840;2023-02-22T00:35:28;7.30;99.90
7461;DHT22;6757;52.258;12.840;2023-02-22T00:37:58;7.30;99.90
7461;DHT22;6757;52.258;12.840;2023-02-22T00:40:27;7.30;99.90
7461;DHT22;6757;52.258;12.840;2023-02-22T00:42:55;7.30;99.90
7461;DHT22;6757;52.258;12.840;2023-02-22T00:45:24;7.30;99.90
7461;DHT22;6757;52.258;12.840;2023-02-22T00:47:53;7.30;99.90
7461;DHT22;6757;52.258;12.840;2023-02-22T00:50:22;7.30;99.90
7461;DHT22;6757;52.258;12.840;2023-02-22T00:52:50;7.30;99.90
7461;DHT22;6757;52.258;12.840;2023-02-22T00:55:21;7.30;99.90
7461;DHT22;6757;52.258;12.840;2023-02-22T00:57:50;7.30;99.90
7461;DHT22;6757;52.258;12.840;2023-02-22T01:00:18;7.20;99.90
7461;DHT22;6757;52.258;12.840;2023-02-22T01:02:46;7.20;99.90
7461;DHT22;6757;52.258;12.840;2023-02-22T01:05:17;7.20;99.90
7461;DHT22;6757;52.258;12.840;2023-02-22T01:07:46;7.20;99.90
7461;DHT22;6757;52.258;12.840;2023-02-22T01:10:14;7.20;99.90
7461;DHT22;6757;52.258;12.840;2023-02-22T01:12:43;7.20;99.90
7461;DHT22;6757;52.258;12.840;2023-02-22T01:15:10;7.20;99.90
7461;DHT22;6757;52.258;12.840;2023-02-22T01:17:38;7.20;99.90
7461;DHT22;6757;52.258;12.840;2023-02-22T01:20:08;7.20;99.90
7461;DHT22;6757;52.258;12.840;2023-02-22T01:22:37;7.20;99.90
7461;DHT22;6757;52.258;12.840;2023-02-22T01:25:05;7.20;99.90
7461;DHT22;6757;52.258;12.840;2023-02-22T01:27:33;7.10;99.90
7461;DHT22;6757;52.258;12.840;2023-02-22T01:30:03;7.10;99.90
7461;DHT22;6757;52.258;12.840;2023-02-22T01:32:33;7.10;99.90
7461;DHT22;6757;52.258;12.840;2023-02-22T01:35:01;7.10;99.90
7461;DHT22;6757;52.258;12.840;2023-02-22T01:37:29;7.10;99.90
7461;DHT22;6757;52.258;12.840;2023-02-22T01:39:56;7.00;99.90
7461;DHT22;6757;52.258;12.840;2023-02-22T01:42:23;7.00;99.90
7461;DHT22;6757;52.258;12.840;2023-02-22T01:48:10;7.00;99.90
7461;DHT22;6757;52.258;12.840;2023-02-22T01:50:42;7.00;99.90
7461;DHT22;6757;52.258;12.840;2023-02-22T01:53:12;7.00;99.90
7461;DHT22;6757;52.258;12.840;2023-02-22T01:55:41;6.90;99.90
7461;DHT22;6757;52.258;12.840;2023-02-22T01:58:09;6.90;99.90
7461;DHT22;6757;52.258;12.840;2023-02-22T02:00:37;6.90;99.90
7461;DHT22;6757;52.258;12.840;2023-02-22T02:03:09;6.90;99.90
7461;DHT22;6757;52.258;12.840;2023-02-22T02:05:39;6.90;99.90
7461;DHT22;6757;52.258;12.840;2023-02-22T02:08:11;6.90;99.90
7461;DHT22;6757;52.258;12.840;2023-02-22T02:10:45;6.90;99.90
7461;DHT22;6757;52.258;12.840;2023-02-22T02:13:15;6.90;99.90
7461;DHT22;6757;52.258;12.840;2023-02-22T02:15:43;6.80;99.90
7461;DHT22;6757;52.258;12.840;2023-02-22T02:18:11;6.80;99.90
7461;DHT22;6757;52.258;12.840;2023-02-22T02:20:46;6.80;99.90
7461;DHT22;6757;52.258;12.840;2023-02-22T02:23:40;6.80;99.90
7461;DHT22;6757;52.258;12.840;2023-02-22T02:32:51;6.80;99.90
7461;DHT22;6757;52.258;12.840;2023-02-22T02:35:27;6.80;99.90
7461;DHT22;6757;52.258;12.840;2023-02-22T02:38:04;6.80;99.90
7461;DHT22;6757;52.258;12.840;2023-02-22T02:40:39;6.80;99.90
7461;DHT22;6757;52.258;12.840;2023-02-22T02:43:16;6.80;99.90
7461;DHT22;6757;52.258;12.840;2023-02-22T02:45:50;6.80;99.90
7461;DHT22;6757;52.258;12.840;2023-02-22T02:48:25;6.80;99.90
7461;DHT22;6757;52.258;12.840;2023-02-22T02:54:26;6.80;99.90
7461;DHT22;6757;52.258;12.840;2023-02-22T02:56:55;6.80;99.90
7461;DHT22;6757;52.258;12.840;2023-02-22T02:59:25;6.80;99.90
7461;DHT22;6757;52.258;12.840;2023-02-22T03:02:03;6.80;99.90
7461;DHT22;6757;52.258;12.840;2023-02-22T03:04:59;6.80;99.90
7461;DHT22;6757;52.258;12.840;2023-02-22T03:07:38;6.80;99.90
7461;DHT22;6757;52.258;12.840;2023-02-22T03:10:23;6.80;99.90
7461;DHT22;6757;52.258;12.840;2023-02-22T03:13:02;6.80;99.90
7461;DHT22;6757;52.258;12.840;2023-02-22T03:15:43;6.80;99.90
7461;DHT22;6757;52.258;12.840;2023-02-22T03:18:22;6.80;99.90
7461;DHT22;6757;52.258;12.840;2023-02-22T03:20:59;6.80;99.90
7461;DHT22;6757;52.258;12.840;2023-02-22T03:23:34;6.80;99.90
7461;DHT22;6757;52.258;12.840;2023-02-22T03:26:07;6.70;99.90
7461;DHT22;6757;52.258;12.840;2023-02-22T03:28:37;6.70;99.90
7461;DHT22;6757;52.258;12.840;2023-02-22T03:31:07;6.70;99.90
7461;DHT22;6757;52.258;12.840;2023-02-22T03:33:40;6.70;99.90
7461;DHT22;6757;52.258;12.840;2023-02-22T03:36:13;6.70;99.90
7461;DHT22;6757;52.258;12.840;2023-02-22T03:38:43;6.70;99.90
7461;DHT22;6757;52.258;12.840;2023-02-22T03:41:14;6.70;99.90
7461;DHT22;6757;52.258;12.840;2023-02-22T03:43:46;6.70;99.90
7461;DHT22;6757;52.258;12.840;2023-02-22T03:46:16;6.70;99.90
7461;DHT22;6757;52.258;12.840;2023-02-22T03:48:49;6.60;99.90
7461;DHT22;6757;52.258;12.840;2023-02-22T03:51:20;6.60;99.90
7461;DHT22;6757;52.258;12.840;2023-02-22T03:53:47;6.60;99.90
7461;DHT22;6757;52.258;12.840;2023-02-22T03:56:21;6.60;99.90
7461;DHT22;6757;52.258;12.840;2023-02-22T03:58:49;6.60;99.90
7461;DHT22;6757;52.258;12.840;2023-02-22T04:01:17;6.60;99.90
7461;DHT22;6757;52.258;12.840;2023-02-22T04:03:48;6.60;99.90
7461;DHT22;6757;52.258;12.840;2023-02-22T04:06:15;6.60;99.90
7461;DHT22;6757;52.258;12.840;2023-02-22T04:08:43;6.60;99.90
7461;DHT22;6757;52.258;12.840;2023-02-22T04:11:10;6.60;99.90
7461;DHT22;6757;52.258;12.840;2023-02-22T04:13:37;6.60;99.90
7461;DHT22;6757;52.258;12.840;2023-02-22T04:16:04;6.60;99.90
7461;DHT22;6757;52.258;12.840;2023-02-22T04:18:31;6.60;99.90
7461;DHT22;6757;52.258;12.840;2023-02-22T04:20:58;6.60;99.90
7461;DHT22;6757;52.258;12.840;2023-02-22T04:23:25;6.50;99.90
7461;DHT22;6757;52.258;12.840;2023-02-22T04:25:53;6.50;99.90
7461;DHT22;6757;52.258;12.840;2023-02-22T04:28:20;6.50;99.90
7461;DHT22;6757;52.258;12.840;2023-02-22T04:30:47;6.60;99.90
7461;DHT22;6757;52.258;12.840;2023-02-22T04:33:14;6.70;99.90
7461;DHT22;6757;52.258;12.840;2023-02-22T04:35:41;6.70;99.90
7461;DHT22;6757;52.258;12.840;2023-02-22T04:38:08;6.70;99.90
7461;DHT22;6757;52.258;12.840;2023-02-22T04:40:35;6.70;99.90
7461;DHT22;6757;52.258;12.840;2023-02-22T04:43:03;6.70;99.90
7461;DHT22;6757;52.258;12.840;2023-02-22T04:45:30;6.70;99.90
7461;DHT22;6757;52.258;12.840;2023-02-22T04:47:57;6.70;99.90
7461;DHT22;6757;52.258;12.840;2023-02-22T04:50:24;6.60;99.90
7461;DHT22;6757;52.258;12.840;2023-02-22T04:52:51;6.60;99.90
7461;DHT22;6757;52.258;12.840;2023-02-22T04:55:18;6.60;99.90
7461;DHT22;6757;52.258;12.840;2023-02-22T04:57:45;6.60;99.90
7461;DHT22;6757;52.258;12.840;2023-02-22T05:00:17;6.70;99.90
7461;DHT22;6757;52.258;12.840;2023-02-22T05:02:46;6.70;99.90
7461;DHT22;6757;52.258;12.840;2023-02-22T05:05:14;6.70;99.90
7461;DHT22;6757;52.258;12.840;2023-02-22T05:07:41;6.70;99.90
7461;DHT22;6757;52.258;12.840;2023-02-22T05:10:08;6.70;99.90
7461;DHT22;6757;52.258;12.840;2023-02-22T05:12:36;6.70;99.90
7461;DHT22;6757;52.258;12.840;2023-02-22T05:15:03;6.70;99.90
7461;DHT22;6757;52.258;12.840;2023-02-22T05:17:33;6.70;99.90
7461;DHT22;6757;52.258;12.840;2023-02-22T05:20:01;6.70;99.90
7461;DHT22;6757;52.258;12.840;2023-02-22T05:22:28;6.70;99.90
7461;DHT22;6757;52.258;12.840;2023-02-22T05:24:55;6.70;99.90
7461;DHT22;6757;52.258;12.840;2023-02-22T05:27:22;6.70;99.90
7461;DHT22;6757;52.258;12.840;2023-02-22T05:29:49;6.70;99.90
7461;DHT22;6757;52.258;12.840;2023-02-22T05:32:16;6.60;99.90
7461;DHT22;6757;52.258;12.840;2023-02-22T05:34:44;6.70;99.90
7461;DHT22;6757;52.258;12.840;2023-02-22T05:37:11;6.70;99.90
7461;DHT22;6757;52.258;12.840;2023-02-22T05:39:38;6.70;99.90
7461;DHT22;6757;52.258;12.840;2023-02-22T05:42:05;6.70;99.90
7461;DHT22;6757;52.258;12.840;2023-02-22T05:44:32;6.70;99.90
7461;DHT22;6757;52.258;12.840;2023-02-22T05:46:59;6.70;99.90
7461;DHT22;6757;52.258;12.840;2023-02-22T05:49:26;6.70;99.90
7461;DHT22;6757;52.258;12.840;2023-02-22T05:51:54;6.70;99.90
7461;DHT22;6757;52.258;12.840;2023-02-22T05:54:24;6.70;99.90
7461;DHT22;6757;52.258;12.840;2023-02-22T05:56:50;6.70;99.90
7461;DHT22;6757;52.258;12.840;2023-02-22T05:59:17;6.70;99.90
7461;DHT22;6757;52.258;12.840;2023-02-22T06:01:45;6.60;99.90
7461;DHT22;6757;52.258;12.840;2023-02-22T06:04:12;6.60;99.90
7461;DHT22;6757;52.258;12.840;2023-02-22T06:06:38;6.60;99.90
7461;DHT22;6757;52.258;12.840;2023-02-22T06:09:07;6.60;99.90
7461;DHT22;6757;52.258;12.840;2023-02-22T06:11:34;6.60;99.90
7461;DHT22;6757;52.258;12.840;2023-02-22T06:14:01;6.60;99.90
7461;DHT22;6757;52.258;12.840;2023-02-22T06:16:28;6.60;99.90
7461;DHT22;6757;52.258;12.840;2023-02-22T06:18:56;6.50;99.90
7461;DHT22;6757;52.258;12.840;2023-02-22T06:21:24;6.50;99.90
7461;DHT22;6757;52.258;12.840;2023-02-22T06:23:51;6.50;99.90
7461;DHT22;6757;52.258;12.840;2023-02-22T06:26:19;6.50;99.90
7461;DHT22;6757;52.258;12.840;2023-02-22T06:28:47;6.50;99.90
7461;DHT22;6757;52.258;12.840;2023-02-22T06:31:14;6.50;99.90
7461;DHT22;6757;52.258;12.840;2023-02-22T06:33:41;6.50;99.90
7461;DHT22;6757;52.258;12.840;2023-02-22T06:36:08;6.50;99.90
7461;DHT22;6757;52.258;12.840;2023-02-22T06:38:35;6.50;99.90
7461;DHT22;6757;52.258;12.840;2023-02-22T06:41:02;6.50;99.90
7461;DHT22;6757;52.258;12.840;2023-02-22T06:43:31;6.50;99.90
7461;DHT22;6757;52.258;12.840;2023-02-22T06:45:58;6.50;99.90
7461;DHT22;6757;52.258;12.840;2023-02-22T06:48:24;6.50;99.90
7461;DHT22;6757;52.258;12.840;2023-02-22T06:50:51;6.50;99.90
7461;DHT22;6757;52.258;12.840;2023-02-22T06:53:18;6.50;99.90
7461;DHT22;6757;52.258;12.840;2023-02-22T06:55:45;6.50;99.90
7461;DHT22;6757;52.258;12.840;2023-02-22T06:58:12;6.50;99.90
7461;DHT22;6757;52.258;12.840;2023-02-22T07:00:41;6.60;99.90
7461;DHT22;6757;52.258;12.840;2023-02-22T07:03:08;6.50;99.90
7461;DHT22;6757;52.258;12.840;2023-02-22T07:05:36;6.50;99.90
7461;DHT22;6757;52.258;12.840;2023-02-22T07:08:06;6.50;99.90
7461;DHT22;6757;52.258;12.840;2023-02-22T07:10:34;6.50;99.90
7461;DHT22;6757;52.258;12.840;2023-02-22T07:13:03;6.50;99.90
7461;DHT22;6757;52.258;12.840;2023-02-22T07:15:32;6.60;99.90
7461;DHT22;6757;52.258;12.840;2023-02-22T07:18:01;6.60;99.90
7461;DHT22;6757;52.258;12.840;2023-02-22T07:20:30;6.60;99.90
7461;DHT22;6757;52.258;12.840;2023-02-22T07:22:57;6.60;99.90
7461;DHT22;6757;52.258;12.840;2023-02-22T07:25:24;6.60;99.90
7461;DHT22;6757;52.258;12.840;2023-02-22T07:27:51;6.60;99.90
7461;DHT22;6757;52.258;12.840;2023-02-22T07:30:20;6.60;99.90
7461;DHT22;6757;52.258;12.840;2023-02-22T07:32:50;7.00;99.90
7461;DHT22;6757;52.258;12.840;2023-02-22T07:35:22;6.70;99.90
7461;DHT22;6757;52.258;12.840;2023-02-22T07:37:50;6.70;99.90
7461;DHT22;6757;52.258;12.840;2023-02-22T07:40:17;6.70;99.90
7461;DHT22;6757;52.258;12.840;2023-02-22T07:42:52;6.70;99.90
7461;DHT22;6757;52.258;12.840;2023-02-22T07:45:22;6.70;99.90
7461;DHT22;6757;52.258;12.840;2023-02-22T07:47:50;6.80;99.90
7461;DHT22;6757;52.258;12.840;2023-02-22T07:50:20;6.80;99.90
7461;DHT22;6757;52.258;12.840;2023-02-22T07:52:49;6.80;99.90
7461;DHT22;6757;52.258;12.840;2023-02-22T07:55:18;6.80;99.90
7461;DHT22;6757;52.258;12.840;2023-02-22T07:57:47;6.80;99.90
7461;DHT22;6757;52.258;12.840;2023-02-22T08:00:19;6.90;99.90
7461;DHT22;6757;52.258;12.840;2023-02-22T08:02:48;6.90;99.90
7461;DHT22;6757;52.258;12.840;2023-02-22T08:05:15;6.90;99.90
7461;DHT22;6757;52.258;12.840;2023-02-22T08:07:44;6.90;99.90
7461;DHT22;6757;52.258;12.840;2023-02-22T08:10:12;7.00;99.90
7461;DHT22;6757;52.258;12.840;2023-02-22T08:12:40;7.00;99.90
7461;DHT22;6757;52.258;12.840;2023-02-22T08:15:14;7.00;99.90
7461;DHT22;6757;52.258;12.840;2023-02-22T08:17:41;7.00;99.90
7461;DHT22;6757;52.258;12.840;2023-02-22T08:20:09;7.00;99.90
7461;DHT22;6757;52.258;12.840;2023-02-22T08:22:36;7.10;99.90
7461;DHT22;6757;52.258;12.840;2023-02-22T08:25:06;7.10;99.90
7461;DHT22;6757;52.258;12.840;2023-02-22T08:27:33;7.10;99.90
7461;DHT22;6757;52.258;12.840;2023-02-22T08:30:00;7.10;99.90
7461;DHT22;6757;52.258;12.840;2023-02-22T08:32:27;7.20;99.90
7461;DHT22;6757;52.258;12.840;2023-02-22T08:34:54;7.20;99.90
7461;DHT22;6757;52.258;12.840;2023-02-22T08:37:21;7.20;99.90
7461;DHT22;6757;52.258;12.840;2023-02-22T08:39:48;7.20;99.90
7461;DHT22;6757;52.258;12.840;2023-02-22T08:42:16;7.30;99.90
7461;DHT22;6757;52.258;12.840;2023-02-22T08:44:43;7.30;99.90
7461;DHT22;6757;52.258;12.840;2023-02-22T08:47:10;7.40;99.90
7461;DHT22;6757;52.258;12.840;2023-02-22T08:49:36;7.40;99.90
7461;DHT22;6757;52.258;12.840;2023-02-22T08:52:03;7.40;99.90
7461;DHT22;6757;52.258;12.840;2023-02-22T08:54:30;7.40;99.90
7461;DHT22;6757;52.258;12.840;2023-02-22T08:56:57;7.50;99.90
7461;DHT22;6757;52.258;12.840;2023-02-22T08:59:25;7.50;99.90
7461;DHT22;6757;52.258;12.840;2023-02-22T09:01:52;7.50;99.90
7461;DHT22;6757;52.258;12.840;2023-02-22T09:04:20;7.50;99.90
7461;DHT22;6757;52.258;12.840;2023-02-22T09:06:46;7.60;99.90
7461;DHT22;6757;52.258;12.840;2023-02-22T09:09:16;7.60;99.90
7461;DHT22;6757;52.258;12.840;2023-02-22T09:11:45;7.60;99.90
7461;DHT22;6757;52.258;12.840;2023-02-22T09:14:13;7.60;99.90
7461;DHT22;6757;52.258;12.840;2023-02-22T09:16:42;7.70;99.90
7461;DHT22;6757;52.258;12.840;2023-02-22T09:19:10;7.70;99.90
7461;DHT22;6757;52.258;12.840;2023-02-22T09:21:36;7.70;99.90
7461;DHT22;6757;52.258;12.840;2023-02-22T09:24:05;7.80;99.90
7461;DHT22;6757;52.258;12.840;2023-02-22T09:26:34;7.80;99.90
7461;DHT22;6757;52.258;12.840;2023-02-22T09:29:04;7.80;99.90
7461;DHT22;6757;52.258;12.840;2023-02-22T09:31:34;7.80;99.90
7461;DHT22;6757;52.258;12.840;2023-02-22T09:34:03;7.80;99.90
7461;DHT22;6757;52.258;12.840;2023-02-22T09:36:31;7.90;99.90
7461;DHT22;6757;52.258;12.840;2023-02-22T09:38:57;7.90;99.90
7461;DHT22;6757;52.258;12.840;2023-02-22T09:41:27;7.90;99.90
7461;DHT22;6757;52.258;12.840;2023-02-22T09:44:08;8.00;99.90
7461;DHT22;6757;52.258;12.840;2023-02-22T09:46:41;8.00;99.90
7461;DHT22;6757;52.258;12.840;2023-02-22T09:49:19;8.10;99.90
7461;DHT22;6757;52.258;12.840;2023-02-22T09:51:52;8.10;99.90
7461;DHT22;6757;52.258;12.840;2023-02-22T09:54:23;8.20;99.90
7461;DHT22;6757;52.258;12.840;2023-02-22T09:56:55;8.20;99.90
7461;DHT22;6757;52.258;12.840;2023-02-22T09:59:27;8.20;99.90
7461;DHT22;6757;52.258;12.840;2023-02-22T10:02:01;8.20;99.90
7461;DHT22;6757;52.258;12.840;2023-02-22T10:04:40;8.30;99.90
7461;DHT22;6757;52.258;12.840;2023-02-22T10:07:17;8.30;99.90
7461;DHT22;6757;52.258;12.840;2023-02-22T10:09:48;8.30;99.90
7461;DHT22;6757;52.258;12.840;2023-02-22T10:12:24;8.30;99.90
7461;DHT22;6757;52.258;12.840;2023-02-22T10:15:20;8.30;99.90
7461;DHT22;6757;52.258;12.840;2023-02-22T10:18:04;8.40;99.90
7461;DHT22;6757;52.258;12.840;2023-02-22T10:20:51;8.40;99.90
7461;DHT22;6757;52.258;12.840;2023-02-22T10:23:24;8.40;99.90
7461;DHT22;6757;52.258;12.840;2023-02-22T10:26:00;8.40;99.90
7461;DHT22;6757;52.258;12.840;2023-02-22T10:28:35;8.40;99.90
7461;DHT22;6757;52.258;12.840;2023-02-22T10:31:07;8.50;99.90
7461;DHT22;6757;52.258;12.840;2023-02-22T10:33:38;8.50;99.90
7461;DHT22;6757;52.258;12.840;2023-02-22T10:36:15;8.50;99.90
7461;DHT22;6757;52.258;12.840;2023-02-22T10:38:49;8.50;99.90
7461;DHT22;6757;52.258;12.840;2023-02-22T10:41:25;8.50;99.90
7461;DHT22;6757;52.258;12.840;2023-02-22T10:43:55;8.60;99.90
7461;DHT22;6757;52.258;12.840;2023-02-22T10:46:23;8.70;99.90
7461;DHT22;6757;52.258;12.840;2023-02-22T10:48:53;8.60;99.90
7461;DHT22;6757;52.258;12.840;2023-02-22T10:51:25;8.70;99.90
7461;DHT22;6757;52.258;12.840;2023-02-22T10:54:00;8.60;99.90
7461;DHT22;6757;52.258;12.840;2023-02-22T10:56:46;8.70;99.90
7461;DHT22;6757;52.258;12.840;2023-02-22T10:59:26;8.80;99.90
7461;DHT22;6757;52.258;12.840;2023-02-22T11:01:55;8.80;99.90
7461;DHT22;6757;52.258;12.840;2023-02-22T11:04:22;8.90;99.90
7461;DHT22;6757;52.258;12.840;2023-02-22T11:07:07;8.90;99.90
7461;DHT22;6757;52.258;12.840;2023-02-22T11:09:47;8.90;99.90
7461;DHT22;6757;52.258;12.840;2023-02-22T11:12:18;9.00;99.90
7461;DHT22;6757;52.258;12.840;2023-02-22T11:14:47;9.10;99.90
7461;DHT22;6757;52.258;12.840;2023-02-22T11:17:25;9.10;99.90
7461;DHT22;6757;52.258;12.840;2023-02-22T11:19:56;9.20;99.90
7461;DHT22;6757;52.258;12.840;2023-02-22T11:22:28;9.30;99.90
7461;DHT22;6757;52.258;12.840;2023-02-22T11:25:00;9.40;99.90
7461;DHT22;6757;52.258;12.840;2023-02-22T11:27:34;9.50;99.90
7461;DHT22;6757;52.258;12.840;2023-02-22T11:30:25;9.60;99.90
7461;DHT22;6757;52.258;12.840;2023-02-22T11:32:56;9.70;99.90
7461;DHT22;6757;52.258;12.840;2023-02-22T11:35:37;9.90;99.90
7461;DHT22;6757;52.258;12.840;2023-02-22T11:38:14;10.00;99.90
7461;DHT22;6757;52.258;12.840;2023-02-22T11:40:46;10.10;99.90
7461;DHT22;6757;52.258;12.840;2023-02-22T11:43:30;10.20;99.90
7461;DHT22;6757;52.258;12.840;2023-02-22T11:46:00;10.30;99.90
7461;DHT22;6757;52.258;12.840;2023-02-22T11:48:31;10.50;99.90
7461;DHT22;6757;52.258;12.840;2023-02-22T11:51:04;10.50;99.90
7461;DHT22;6757;52.258;12.840;2023-02-22T11:53:47;10.60;99.90
7461;DHT22;6757;52.258;12.840;2023-02-22T11:56:25;10.60;99.90
7461;DHT22;6757;52.258;12.840;2023-02-22T11:59:02;10.60;99.90
7461;DHT22;6757;52.258;12.840;2023-02-22T12:01:40;10.60;99.90
7461;DHT22;6757;52.258;12.840;2023-02-22T12:04:35;10.60;99.90
7461;DHT22;6757;52.258;12.840;2023-02-22T12:07:20;10.60;99.90
7461;DHT22;6757;52.258;12.840;2023-02-22T12:10:02;10.50;99.90
7461;DHT22;6757;52.258;12.840;2023-02-22T12:12:42;10.50;99.90
7461;DHT22;6757;52.258;12.840;2023-02-22T12:15:27;10.50;99.90
7461;DHT22;6757;52.258;12.840;2023-02-22T12:18:00;10.50;99.90
7461;DHT22;6757;52.258;12.840;2023-02-22T12:20:36;10.40;99.90
7461;DHT22;6757;52.258;12.840;2023-02-22T12:23:13;10.40;99.90
7461;DHT22;6757;52.258;12.840;2023-02-22T12:25:53;10.40;99.90
7461;DHT22;6757;52.258;12.840;2023-02-22T12:28:29;10.40;99.90
7461;DHT22;6757;52.258;12.840;2023-02-22T12:31:08;10.30;99.90
7461;DHT22;6757;52.258;12.840;2023-02-22T12:33:47;10.40;99.90
7461;DHT22;6757;52.258;12.840;2023-02-22T12:36:24;10.40;99.90
7461;DHT22;6757;52.258;12.840;2023-02-22T12:39:02;10.40;99.90
7461;DHT22;6757;52.258;12.840;2023-02-22T12:41:36;10.40;99.90
7461;DHT22;6757;52.258;12.840;2023-02-22T12:44:09;10.50;99.90
7461;DHT22;6757;52.258;12.840;2023-02-22T12:46:45;10.50;99.90
7461;DHT22;6757;52.258;12.840;2023-02-22T12:49:18;10.50;99.90
7461;DHT22;6757;52.258;12.840;2023-02-22T12:51:53;10.40;99.90
7461;DHT22;6757;52.258;12.840;2023-02-22T12:54:30;10.40;99.90
7461;DHT22;6757;52.258;12.840;2023-02-22T12:57:13;10.40;99.90
7461;DHT22;6757;52.258;12.840;2023-02-22T12:59:47;10.40;99.90
7461;DHT22;6757;52.258;12.840;2023-02-22T13:02:20;10.50;99.90
7461;DHT22;6757;52.258;12.840;2023-02-22T13:04:48;10.60;99.90
7461;DHT22;6757;52.258;12.840;2023-02-22T13:07:28;10.70;99.90
7461;DHT22;6757;52.258;12.840;2023-02-22T13:10:18;10.80;99.90
7461;DHT22;6757;52.258;12.840;2023-02-22T13:12:58;10.80;99.90
7461;DHT22;6757;52.258;12.840;2023-02-22T13:15:34;10.90;99.90
7461;DHT22;6757;52.258;12.840;2023-02-22T13:18:11;10.90;99.90
7461;DHT22;6757;52.258;12.840;2023-02-22T13:20:43;11.00;99.90
7461;DHT22;6757;52.258;12.840;2023-02-22T13:23:16;11.10;99.90
7461;DHT22;6757;52.258;12.840;2023-02-22T13:25:52;11.10;99.90
7461;DHT22;6757;52.258;12.840;2023-02-22T13:28:30;11.20;99.90
7461;DHT22;6757;52.258;12.840;2023-02-22T13:31:14;11.20;99.90
7461;DHT22;6757;52.258;12.840;2023-02-22T13:34:05;11.30;99.90
7461;DHT22;6757;52.258;12.840;2023-02-22T13:36:53;11.30;99.90
7461;DHT22;6757;52.258;12.840;2023-02-22T13:39:44;11.30;99.90
7461;DHT22;6757;52.258;12.840;2023-02-22T13:42:56;11.20;99.90
7461;DHT22;6757;52.258;12.840;2023-02-22T13:46:12;11.20;99.90
7461;DHT22;6757;52.258;12.840;2023-02-22T13:51:57;11.20;99.90
7461;DHT22;6757;52.258;12.840;2023-02-22T13:54:27;11.20;99.90
7461;DHT22;6757;52.258;12.840;2023-02-22T13:57:01;11.20;99.90
7461;DHT22;6757;52.258;12.840;2023-02-22T13:59:31;11.10;99.90
7461;DHT22;6757;52.258;12.840;2023-02-22T14:02:01;11.10;99.90
7461;DHT22;6757;52.258;12.840;2023-02-22T14:04:35;11.10;99.90
7461;DHT22;6757;52.258;12.840;2023-02-22T14:10:43;10.90;99.90
7461;DHT22;6757;52.258;12.840;2023-02-22T14:13:13;10.90;99.90
7461;DHT22;6757;52.258;12.840;2023-02-22T14:16:18;10.90;99.90
7461;DHT22;6757;52.258;12.840;2023-02-22T14:18:48;10.90;99.90
7461;DHT22;6757;52.258;12.840;2023-02-22T14:21:18;10.80;99.90
7461;DHT22;6757;52.258;12.840;2023-02-22T14:23:47;10.80;99.90
7461;DHT22;6757;52.258;12.840;2023-02-22T14:26:17;10.70;99.90
7461;DHT22;6757;52.258;12.840;2023-02-22T14:28:51;10.70;99.90
7461;DHT22;6757;52.258;12.840;2023-02-22T14:31:22;10.70;99.90
7461;DHT22;6757;52.258;12.840;2023-02-22T14:34:09;10.60;99.90
7461;DHT22;6757;52.258;12.840;2023-02-22T14:36:46;10.60;99.90
7461;DHT22;6757;52.258;12.840;2023-02-22T14:39:21;10.60;99.90
7461;DHT22;6757;52.258;12.840;2023-02-22T14:41:56;10.60;99.90
7461;DHT22;6757;52.258;12.840;2023-02-22T14:44:30;10.60;99.90
7461;DHT22;6757;52.258;12.840;2023-02-22T14:47:03;10.50;99.90
7461;DHT22;6757;52.258;12.840;2023-02-22T14:49:35;10.50;99.90
7461;DHT22;6757;52.258;12.840;2023-02-22T14:52:16;10.50;99.90
7461;DHT22;6757;52.258;12.840;2023-02-22T14:54:53;10.40;99.90
7461;DHT22;6757;52.258;12.840;2023-02-22T14:57:28;10.40;99.90
7461;DHT22;6757;52.258;12.840;2023-02-22T15:00:06;10.40;99.90
7461;DHT22;6757;52.258;12.840;2023-02-22T15:02:46;10.40;99.90
7461;DHT22;6757;52.258;12.840;2023-02-22T15:05:17;10.40;99.90
7461;DHT22;6757;52.258;12.840;2023-02-22T15:07:54;10.30;99.90
7461;DHT22;6757;52.258;12.840;2023-02-22T15:10:25;10.30;99.90
7461;DHT22;6757;52.258;12.840;2023-02-22T15:12:57;10.30;99.90
7461;DHT22;6757;52.258;12.840;2023-02-22T15:15:37;10.30;99.90
7461;DHT22;6757;52.258;12.840;2023-02-22T15:18:17;10.30;99.90
7461;DHT22;6757;52.258;12.840;2023-02-22T15:20:49;10.30;99.90
7461;DHT22;6757;52.258;12.840;2023-02-22T15:23:21;10.30;99.90
7461;DHT22;6757;52.258;12.840;2023-02-22T15:25:55;10.30;99.90
7461;DHT22;6757;52.258;12.840;2023-02-22T15:28:23;10.40;99.90
7461;DHT22;6757;52.258;12.840;2023-02-22T15:31:14;10.40;99.90
7461;DHT22;6757;52.258;12.840;2023-02-22T15:33:43;10.30;99.90
7461;DHT22;6757;52.258;12.840;2023-02-22T15:36:14;10.40;99.90
7461;DHT22;6757;52.258;12.840;2023-02-22T15:38:47;10.30;99.90
7461;DHT22;6757;52.258;12.840;2023-02-22T15:41:21;10.30;99.90
7461;DHT22;6757;52.258;12.840;2023-02-22T15:44:00;10.20;99.90
7461;DHT22;6757;52.258;12.840;2023-02-22T15:46:30;10.20;99.90
7461;DHT22;6757;52.258;12.840;2023-02-22T15:49:18;10.20;99.90
7461;DHT22;6757;52.258;12.840;2023-02-22T15:52:00;10.10;99.90
7461;DHT22;6757;52.258;12.840;2023-02-22T15:54:40;10.10;99.90
7461;DHT22;6757;52.258;12.840;2023-02-22T15:57:12;10.10;99.90
7461;DHT22;6757;52.258;12.840;2023-02-22T15:59:47;10.10;99.90
7461;DHT22;6757;52.258;12.840;2023-02-22T16:02:28;10.30;99.90
7461;DHT22;6757;52.258;12.840;2023-02-22T16:04:59;10.50;99.90
7461;DHT22;6757;52.258;12.840;2023-02-22T16:07:32;10.70;99.90
7461;DHT22;6757;52.258;12.840;2023-02-22T16:10:02;10.60;99.90
7461;DHT22;6757;52.258;12.840;2023-02-22T16:12:34;10.50;99.90
7461;DHT22;6757;52.258;12.840;2023-02-22T16:15:01;10.40;99.90
7461;DHT22;6757;52.258;12.840;2023-02-22T16:17:34;10.10;99.90
7461;DHT22;6757;52.258;12.840;2023-02-22T16:20:29;10.10;99.90
7461;DHT22;6757;52.258;12.840;2023-02-22T16:23:21;9.90;99.90
7461;DHT22;6757;52.258;12.840;2023-02-22T16:26:04;9.70;99.90
7461;DHT22;6757;52.258;12.840;2023-02-22T16:28:46;9.70;99.90
7461;DHT22;6757;52.258;12.840;2023-02-22T16:31:16;9.50;99.90
7461;DHT22;6757;52.258;12.840;2023-02-22T16:33:46;9.40;99.90
7461;DHT22;6757;52.258;12.840;2023-02-22T16:36:16;9.30;99.90
7461;DHT22;6757;52.258;12.840;2023-02-22T16:38:45;9.20;99.90
7461;DHT22;6757;52.258;12.840;2023-02-22T16:41:14;9.10;99.90
7461;DHT22;6757;52.258;12.840;2023-02-22T16:43:45;9.00;99.90
7461;DHT22;6757;52.258;12.840;2023-02-22T16:46:16;9.00;99.90
7461;DHT22;6757;52.258;12.840;2023-02-22T16:48:44;8.90;99.90